Time;durP1;ratioP1;P1;durP2;ratioP2;P2;SDS_P1;SDS_P2;PMS_P1;PMS_P2;Temp;Humidity;BMP_temperature;BMP_pressure;BME280_temperature;BME280_humidity;BME280_pressure;Samples;Min_cycle;Max_cycle;Signal;HPM_P1;HPM_P2
2021/07/24 00:00:00;;;;;;;22.33;12.90;;;13.80;86.00;;;;;;5055067;28;20523;-88
2021/07/24 00:02:25;;;;;;;17.47;13.13;;;13.80;85.50;;;;;;5055292;28;20275;-88
2021/07/24 00:04:51;;;;;;;18.83;12.40;;;13.80;85.10;;;;;;5054982;28;20176;-88
2021/07/24 00:07:17;;;;;;;20.63;12.77;;;13.80;84.80;;;;;;5036973;28;20636;-88
2021/07/24 00:09:42;;;;;;;15.63;11.90;;;13.80;84.60;;;;;;5055170;28;20230;-88
2021/07/24 00:12:12;;;;;;;17.13;12.33;;;13.80;84.30;;;;;;5055312;28;20176;-89
2021/07/24 00:14:37;;;;;;;17.90;11.93;;;13.70;84.20;;;;;;5055101;28;20206;-90
2021/07/24 00:17:03;;;;;;;16.27;12.50;;;13.70;83.90;;;;;;5055029;28;20188;-89
2021/07/24 00:19:29;;;;;;;16.73;11.43;;;13.70;83.70;;;;;;5037930;28;20547;-90
2021/07/24 00:21:54;;;;;;;12.87;11.50;;;13.60;83.50;;;;;;5055047;28;20274;-89
2021/07/24 00:24:20;;;;;;;14.03;11.30;;;13.60;83.40;;;;;;5054248;28;20724;-89
2021/07/24 00:26:48;;;;;;;16.10;11.67;;;13.60;83.30;;;;;;5054732;28;20620;-89
2021/07/24 00:29:16;;;;;;;25.40;15.40;;;13.50;83.20;;;;;;5036836;28;20555;-88
2021/07/24 00:31:42;;;;;;;25.77;16.00;;;13.60;85.30;;;;;;5036669;28;20176;-87
2021/07/24 00:34:08;;;;;;;25.13;15.87;;;13.50;86.60;;;;;;5054362;28;20188;-88
2021/07/24 00:36:34;;;;;;;25.73;15.13;;;13.50;87.70;;;;;;5036467;28;20613;-87
2021/07/24 00:39:00;;;;;;;26.40;16.30;;;13.50;88.40;;;;;;5036398;28;20263;-88
2021/07/24 00:41:41;;;;;;;26.57;16.43;;;13.50;88.60;;;;;;5036837;28;20175;-89
2021/07/24 00:44:08;;;;;;;23.97;15.97;;;13.50;89.00;;;;;;5036418;28;20168;-89
2021/07/24 00:46:35;;;;;;;24.50;15.10;;;13.60;89.30;;;;;;5054181;28;20195;-89
2021/07/24 00:49:03;;;;;;;25.00;15.83;;;13.50;89.50;;;;;;5036603;28;20696;-89
2021/07/24 00:51:32;;;;;;;30.23;17.53;;;13.50;89.70;;;;;;5036661;28;20176;-89
2021/07/24 00:54:00;;;;;;;30.20;17.07;;;13.30;89.90;;;;;;5036082;28;20673;-89
2021/07/24 00:56:27;;;;;;;32.07;17.27;;;13.40;90.10;;;;;;5036102;28;20710;-89
2021/07/24 00:58:55;;;;;;;23.83;16.17;;;13.40;90.20;;;;;;5054101;28;20172;-89
2021/07/24 01:01:21;;;;;;;32.13;16.97;;;13.40;90.20;;;;;;5054056;28;20238;-89
2021/07/24 01:03:47;;;;;;;25.33;15.90;;;13.30;90.20;;;;;;5036002;28;20183;-89
2021/07/24 01:06:14;;;;;;;33.87;16.67;;;13.30;90.30;;;;;;5054238;28;20625;-89
2021/07/24 01:08:41;;;;;;;27.50;16.80;;;13.20;90.30;;;;;;5036105;28;20179;-89
2021/07/24 01:11:10;;;;;;;23.07;15.83;;;13.20;90.40;;;;;;5053816;28;20168;-89
2021/07/24 01:13:35;;;;;;;26.47;16.13;;;13.10;90.40;;;;;;5053727;28;20564;-89
2021/07/24 01:16:01;;;;;;;24.43;17.03;;;13.10;90.20;;;;;;5035859;28;20211;-89
2021/07/24 01:18:27;;;;;;;28.17;17.23;;;13.00;90.40;;;;;;5053889;28;20267;-89
2021/07/24 01:20:59;;;;;;;33.63;16.73;;;13.00;90.50;;;;;;5053937;28;20172;-89
2021/07/24 01:23:24;;;;;;;27.20;16.40;;;12.90;90.70;;;;;;5036846;28;20163;-89
2021/07/24 01:25:53;;;;;;;34.47;15.73;;;12.90;90.60;;;;;;5053609;28;20753;-89
2021/07/24 01:28:33;;;;;;;25.23;16.27;;;12.80;90.50;;;;;;5036128;28;20176;-89
2021/07/24 01:31:02;;;;;;;27.17;15.67;;;12.80;90.60;;;;;;5054035;28;20167;-89
2021/07/24 01:33:29;;;;;;;27.83;17.17;;;12.80;90.80;;;;;;5053608;28;20171;-89
2021/07/24 01:35:55;;;;;;;36.23;18.10;;;12.80;91.00;;;;;;5053174;28;20192;-89
2021/07/24 01:38:21;;;;;;;41.23;17.27;;;12.80;91.00;;;;;;5053514;28;20528;-89
2021/07/24 01:40:48;;;;;;;39.37;16.13;;;12.80;91.10;;;;;;5053461;28;20179;-89
2021/07/24 01:43:13;;;;;;;30.07;17.23;;;12.80;91.30;;;;;;5053639;28;20199;-89
2021/07/24 01:45:41;;;;;;;27.77;17.33;;;12.80;91.30;;;;;;5053248;28;20183;-89
2021/07/24 01:48:13;;;;;;;30.13;17.07;;;12.70;91.30;;;;;;5035594;28;20587;-89
2021/07/24 01:53:27;;;;;;;25.77;17.37;;;12.70;91.30;;;;;;5053679;28;20170;-89
2021/07/24 01:56:02;;;;;;;25.13;16.80;;;12.60;91.40;;;;;;5053135;28;20227;-89
2021/07/24 01:58:36;;;;;;;32.70;15.73;;;12.60;91.40;;;;;;5035475;28;20168;-89
2021/07/24 02:01:04;;;;;;;31.13;16.80;;;12.50;91.40;;;;;;5035354;28;20175;-89
2021/07/24 02:03:45;;;;;;;28.43;17.10;;;12.40;91.30;;;;;;5035386;28;20180;-89
2021/07/24 02:06:13;;;;;;;36.13;17.13;;;12.30;91.30;;;;;;5035274;28;20283;-88
2021/07/24 02:08:43;;;;;;;27.53;16.20;;;12.30;91.20;;;;;;5035242;28;20234;-89
2021/07/24 02:11:09;;;;;;;27.40;15.97;;;12.30;91.30;;;;;;5053064;28;20161;-89
2021/07/24 02:13:35;;;;;;;25.77;16.53;;;12.30;91.30;;;;;;5035265;28;20643;-89
2021/07/24 02:16:01;;;;;;;32.07;16.20;;;12.20;91.40;;;;;;5035466;28;20295;-89
2021/07/24 02:18:28;;;;;;;29.83;17.53;;;12.20;91.50;;;;;;5035238;28;20176;-89
2021/07/24 02:20:54;;;;;;;29.80;16.40;;;12.10;91.40;;;;;;5053180;28;20263;-89
2021/07/24 02:23:20;;;;;;;35.30;16.83;;;12.00;91.40;;;;;;5036009;28;20542;-89
2021/07/24 02:25:46;;;;;;;27.37;15.90;;;12.00;91.60;;;;;;5035078;28;20198;-89
2021/07/24 02:28:12;;;;;;;29.67;16.70;;;12.00;91.60;;;;;;5035098;28;20288;-89
2021/07/24 02:30:38;;;;;;;27.17;16.70;;;12.00;91.70;;;;;;5035663;28;20269;-88
2021/07/24 02:33:04;;;;;;;32.80;16.97;;;12.00;91.70;;;;;;5053246;28;20160;-89
2021/07/24 02:35:30;;;;;;;30.50;17.33;;;12.00;91.60;;;;;;5034933;28;20200;-89
2021/07/24 02:37:55;;;;;;;30.30;16.43;;;12.00;91.70;;;;;;5034868;28;20291;-89
2021/07/24 02:40:22;;;;;;;30.20;17.43;;;12.00;91.60;;;;;;5034983;28;20176;-89
2021/07/24 02:42:48;;;;;;;33.90;16.77;;;12.10;91.80;;;;;;5034969;28;20187;-89
2021/07/24 02:45:14;;;;;;;30.00;17.70;;;12.10;91.80;;;;;;5052767;28;20226;-89
2021/07/24 02:47:40;;;;;;;28.33;16.30;;;12.10;91.80;;;;;;5035647;28;20200;-89
2021/07/24 02:50:06;;;;;;;27.77;16.77;;;12.10;91.90;;;;;;5038619;28;20187;-89
2021/07/24 02:52:32;;;;;;;28.40;16.47;;;12.00;91.80;;;;;;5056798;28;20187;-89
2021/07/24 02:54:57;;;;;;;31.00;16.17;;;12.00;91.80;;;;;;5056572;28;20253;-89
2021/07/24 02:57:23;;;;;;;33.47;16.60;;;12.00;91.80;;;;;;5056210;28;20195;-89
2021/07/24 02:59:48;;;;;;;36.13;17.20;;;12.00;91.80;;;;;;5056282;28;20172;-89
2021/07/24 03:02:18;;;;;;;34.87;15.43;;;11.90;91.70;;;;;;5055080;28;20176;-89
2021/07/24 03:04:44;;;;;;;30.87;16.57;;;11.90;91.70;;;;;;5056252;28;20183;-88
2021/07/24 03:07:10;;;;;;;34.23;16.40;;;11.90;91.70;;;;;;5038642;28;20195;-89
2021/07/24 03:09:36;;;;;;;32.57;16.83;;;11.90;91.80;;;;;;5038332;28;20202;-89
2021/07/24 03:12:02;;;;;;;30.73;17.37;;;11.90;91.80;;;;;;5038092;28;20183;-89
2021/07/24 03:14:28;;;;;;;30.43;16.43;;;11.80;91.80;;;;;;5038135;28;20199;-89
2021/07/24 03:16:54;;;;;;;34.27;16.27;;;11.80;91.80;;;;;;5056083;28;20690;-89
2021/07/24 03:19:19;;;;;;;26.23;15.23;;;11.80;91.90;;;;;;5055862;28;20580;-89
2021/07/24 03:21:45;;;;;;;25.87;15.50;;;11.80;91.80;;;;;;5055906;28;20203;-89
2021/07/24 03:24:10;;;;;;;26.97;15.93;;;11.80;91.80;;;;;;5056061;28;20229;-89
2021/07/24 03:26:39;;;;;;;29.87;15.83;;;11.80;91.90;;;;;;5038012;28;20220;-89
2021/07/24 03:29:04;;;;;;;32.63;16.30;;;11.70;91.90;;;;;;5038711;28;20187;-89
2021/07/24 03:31:30;;;;;;;31.40;16.10;;;11.70;92.00;;;;;;5056055;28;20534;-89
2021/07/24 03:33:56;;;;;;;38.33;15.97;;;11.70;92.00;;;;;;5055863;28;20176;-89
2021/07/24 03:36:21;;;;;;;37.43;16.73;;;11.80;92.00;;;;;;5055617;28;20223;-89
2021/07/24 03:38:47;;;;;;;36.80;17.13;;;11.80;92.10;;;;;;5055597;28;20602;-89
2021/07/24 03:41:12;;;;;;;37.40;17.47;;;11.90;92.10;;;;;;5055558;28;20168;-89
2021/07/24 03:43:38;;;;;;;29.20;16.87;;;11.90;92.10;;;;;;5037884;28;20662;-89
2021/07/24 03:46:15;;;;;;;29.37;16.63;;;12.10;92.00;;;;;;5055328;28;20219;-89
2021/07/24 03:48:45;;;;;;;27.73;15.33;;;12.00;91.80;;;;;;5055400;28;20615;-89
2021/07/24 03:51:15;;;;;;;25.27;15.70;;;12.10;91.60;;;;;;5037504;28;20191;-89
2021/07/24 03:53:41;;;;;;;25.37;16.60;;;12.20;91.50;;;;;;5037473;28;20176;-89
2021/07/24 03:56:18;;;;;;;29.93;14.47;;;12.20;91.40;;;;;;5037358;28;20702;-89
2021/07/24 03:58:45;;;;;;;31.80;15.70;;;12.30;91.20;;;;;;5055156;28;20217;-89
2021/07/24 04:01:11;;;;;;;30.33;15.67;;;12.40;91.00;;;;;;5037336;28;20203;-89
2021/07/24 04:03:37;;;;;;;23.47;16.03;;;12.50;91.00;;;;;;5038393;28;20631;-89
2021/07/24 04:06:04;;;;;;;23.37;15.03;;;12.60;90.80;;;;;;5037309;28;20196;-89
2021/07/24 04:08:31;;;;;;;31.13;15.93;;;12.70;90.70;;;;;;5037254;28;20231;-89
2021/07/24 04:10:57;;;;;;;28.97;14.57;;;12.80;90.50;;;;;;5055126;28;20178;-89
2021/07/24 04:13:23;;;;;;;25.93;15.13;;;12.90;90.40;;;;;;5055154;28;20175;-89
2021/07/24 04:15:48;;;;;;;27.97;15.20;;;12.90;90.10;;;;;;5054825;28;20536;-89
2021/07/24 04:18:14;;;;;;;28.20;14.20;;;12.80;90.10;;;;;;5037041;28;20187;-89
2021/07/24 04:20:41;;;;;;;20.33;13.97;;;12.80;90.20;;;;;;5036986;28;20670;-89
2021/07/24 04:23:08;;;;;;;22.43;14.90;;;12.80;90.20;;;;;;5054704;28;20635;-89
2021/07/24 04:25:34;;;;;;;22.03;13.77;;;12.80;90.20;;;;;;5036804;28;20238;-89
2021/07/24 04:27:59;;;;;;;22.77;13.67;;;12.90;90.30;;;;;;5054467;28;20216;-89
2021/07/24 04:30:25;;;;;;;25.00;13.90;;;12.90;90.40;;;;;;5036776;28;20188;-89
2021/07/24 04:32:51;;;;;;;20.07;13.53;;;12.90;90.40;;;;;;5036708;28;20186;-89
2021/07/24 04:35:17;;;;;;;26.23;15.27;;;12.90;90.50;;;;;;5036853;28;20298;-89
2021/07/24 04:37:43;;;;;;;21.70;14.83;;;12.90;90.70;;;;;;5054400;28;20279;-89
2021/07/24 04:40:09;;;;;;;17.57;13.80;;;13.00;90.80;;;;;;5054342;28;20176;-89
2021/07/24 04:42:34;;;;;;;24.27;13.70;;;13.00;90.90;;;;;;5054310;28;20259;-89
2021/07/24 04:45:00;;;;;;;21.93;13.63;;;13.10;91.10;;;;;;5036447;28;20215;-89
2021/07/24 04:47:26;;;;;;;26.63;15.07;;;13.20;91.30;;;;;;5036828;28;20541;-89
2021/07/24 04:49:53;;;;;;;32.30;15.47;;;13.30;91.40;;;;;;5036401;28;20180;-89
2021/07/24 04:52:20;;;;;;;23.70;14.83;;;13.30;91.40;;;;;;5054297;28;20655;-89
2021/07/24 04:54:48;;;;;;;21.70;15.57;;;13.40;91.50;;;;;;5053995;28;20195;-88
2021/07/24 04:57:16;;;;;;;27.70;15.60;;;13.50;91.50;;;;;;5053985;28;20192;-88
2021/07/24 04:59:47;;;;;;;25.33;14.37;;;13.60;91.50;;;;;;5053955;28;20200;-89
2021/07/24 05:02:18;;;;;;;23.27;15.07;;;13.70;91.50;;;;;;5037056;28;20514;-89
2021/07/24 05:04:45;;;;;;;31.87;14.40;;;13.70;91.40;;;;;;5036485;28;20171;-89
2021/07/24 05:07:20;;;;;;;16.83;12.43;;;13.80;91.30;;;;;;5036383;28;20231;-89
2021/07/24 05:09:46;;;;;;;18.17;11.90;;;13.80;91.20;;;;;;5036688;28;20733;-89
2021/07/24 05:12:12;;;;;;;18.23;11.50;;;13.80;91.20;;;;;;5053772;28;20255;-89
2021/07/24 05:14:38;;;;;;;15.93;11.47;;;13.80;91.00;;;;;;5053807;28;20295;-89
2021/07/24 05:17:08;;;;;;;17.87;11.57;;;13.80;90.80;;;;;;5035847;28;20228;-89
2021/07/24 05:19:46;;;;;;;16.23;11.63;;;13.90;90.70;;;;;;5036060;28;20549;-89
2021/07/24 05:22:13;;;;;;;17.17;11.47;;;13.90;90.60;;;;;;5035988;28;20187;-89
2021/07/24 05:24:43;;;;;;;15.00;11.43;;;13.90;90.50;;;;;;5053691;28;20557;-89
2021/07/24 05:27:10;;;;;;;15.70;12.07;;;14.00;90.40;;;;;;5070081;23;20261;-89
2021/07/24 05:29:36;;;;;;;18.93;13.40;;;14.00;90.40;;;;;;5072689;28;20183;-89
2021/07/24 05:32:02;;;;;;;22.27;13.33;;;14.30;90.90;;;;;;5072879;28;20229;-89
2021/07/24 05:34:27;;;;;;;19.03;12.87;;;14.50;90.90;;;;;;5055718;28;20728;-89
2021/07/24 05:36:53;;;;;;;20.33;14.03;;;14.60;90.70;;;;;;5072058;28;20191;-89
2021/07/24 05:39:19;;;;;;;18.67;13.10;;;14.80;90.80;;;;;;5055551;28;20672;-89
2021/07/24 05:41:45;;;;;;;15.70;12.40;;;14.90;90.80;;;;;;5055486;28;20565;-89
2021/07/24 05:44:12;;;;;;;18.40;13.03;;;15.00;90.40;;;;;;5073290;28;20171;-89
2021/07/24 05:46:38;;;;;;;23.23;12.98;;;15.10;90.30;;;;;;5055652;28;20191;-89
2021/07/24 05:49:04;;;;;;;23.60;12.50;;;15.30;89.90;;;;;;5055383;28;20550;-89
2021/07/24 05:51:30;;;;;;;16.35;12.38;;;15.30;90.00;;;;;;5073306;28;20201;-89
2021/07/24 05:53:55;;;;;;;20.40;13.05;;;15.50;89.90;;;;;;5073175;28;20172;-89
2021/07/24 05:56:21;;;;;;;17.23;11.85;;;15.70;89.90;;;;;;5055284;28;20201;-89
2021/07/24 05:58:47;;;;;;;19.23;13.38;;;15.70;89.80;;;;;;5073478;28;20182;-89
2021/07/24 06:01:13;;;;;;;20.02;12.85;;;15.80;89.10;;;;;;5055281;28;20596;-89
2021/07/24 06:03:39;;;;;;;17.80;11.40;;;16.10;89.10;;;;;;5055188;28;20179;-89
2021/07/24 06:06:05;;;;;;;14.20;10.85;;;16.20;88.30;;;;;;5073083;28;20253;-89
2021/07/24 06:08:31;;;;;;;16.50;10.25;;;16.30;87.50;;;;;;5073015;28;20205;-89
2021/07/24 06:11:00;;;;;;;14.57;11.00;;;16.40;87.00;;;;;;5073084;28;20205;-89
2021/07/24 06:13:27;;;;;;;13.25;9.10;;;16.50;86.20;;;;;;5055205;28;20261;-89
2021/07/24 06:15:53;;;;;;;13.02;9.52;;;16.50;86.40;;;;;;5055552;28;20199;-89
2021/07/24 06:18:20;;;;;;;12.95;9.80;;;16.70;85.60;;;;;;5055081;28;20171;-89
2021/07/24 06:20:47;;;;;;;14.60;9.65;;;16.70;85.30;;;;;;5073038;28;20167;-89
2021/07/24 06:23:13;;;;;;;16.27;9.93;;;16.80;86.10;;;;;;5074638;28;20258;-89
2021/07/24 06:25:39;;;;;;;12.68;9.68;;;16.90;85.50;;;;;;5059009;28;20210;-89
2021/07/24 06:28:04;;;;;;;12.95;10.00;;;17.00;85.10;;;;;;5059344;28;20301;-89
2021/07/24 06:30:30;;;;;;;11.23;9.50;;;17.10;85.20;;;;;;5058873;28;20211;-89
2021/07/24 06:32:56;;;;;;;12.07;9.63;;;17.30;85.30;;;;;;5058925;28;20187;-89
2021/07/24 06:35:21;;;;;;;11.60;9.13;;;17.40;84.50;;;;;;5059082;28;20225;-89
2021/07/24 06:37:47;;;;;;;13.05;9.05;;;17.40;84.40;;;;;;5076688;28;20187;-88
2021/07/24 06:40:13;;;;;;;11.50;8.73;;;17.50;84.30;;;;;;5058776;28;20179;-87
2021/07/24 06:42:39;;;;;;;12.35;8.77;;;17.70;83.80;;;;;;5076868;28;20164;-87
2021/07/24 06:45:05;;;;;;;13.57;9.40;;;17.70;83.90;;;;;;5058643;28;20527;-88
2021/07/24 06:47:31;;;;;;;13.48;8.90;;;17.90;83.70;;;;;;5076367;28;20192;-87
2021/07/24 06:49:56;;;;;;;15.57;8.98;;;18.10;83.50;;;;;;5076447;28;20173;-87
2021/07/24 06:52:22;;;;;;;14.32;8.90;;;18.20;83.30;;;;;;5076333;28;20258;-87
2021/07/24 06:54:48;;;;;;;12.93;9.50;;;18.20;82.70;;;;;;5058490;28;20203;-87
2021/07/24 06:57:14;;;;;;;11.95;8.90;;;18.30;83.00;;;;;;5058355;28;20217;-88
2021/07/24 06:59:39;;;;;;;15.43;9.02;;;18.60;83.20;;;;;;5076370;28;20159;-87
2021/07/24 07:02:06;;;;;;;14.65;8.68;;;18.70;82.20;;;;;;5059014;28;20266;-88
2021/07/24 07:04:32;;;;;;;14.82;8.48;;;18.80;82.40;;;;;;5058243;28;20210;-88
2021/07/24 07:06:57;;;;;;;22.23;9.27;;;19.00;80.80;;;;;;5058337;28;20195;-88
2021/07/24 07:09:23;;;;;;;12.57;7.40;;;19.00;80.30;;;;;;5058106;28;20186;-88
2021/07/24 07:11:49;;;;;;;13.30;7.32;;;19.10;79.70;;;;;;5076437;28;20642;-88
2021/07/24 07:14:14;;;;;;;10.23;7.45;;;19.20;79.00;;;;;;5075831;28;20630;-88
2021/07/24 07:16:40;;;;;;;8.60;6.68;;;19.20;79.00;;;;;;5057977;28;20580;-88
2021/07/24 07:19:06;;;;;;;13.50;7.55;;;19.40;79.40;;;;;;5057987;28;20171;-88
2021/07/24 07:21:33;;;;;;;11.10;6.93;;;19.50;78.30;;;;;;5057855;28;20199;-88
2021/07/24 07:23:58;;;;;;;7.95;6.20;;;19.60;78.10;;;;;;5075809;28;20171;-88
2021/07/24 07:26:25;;;;;;;8.30;6.15;;;19.70;76.70;;;;;;5075689;28;20553;-88
2021/07/24 07:28:51;;;;;;;12.55;6.50;;;19.70;75.50;;;;;;5057776;28;20172;-88
2021/07/24 07:31:17;;;;;;;12.60;5.80;;;19.70;74.30;;;;;;5075621;28;20175;-88
2021/07/24 07:33:43;;;;;;;9.57;5.93;;;19.80;74.20;;;;;;5057280;28;20171;-88
2021/07/24 07:36:08;;;;;;;12.30;5.70;;;19.80;74.40;;;;;;5075421;28;20739;-88
2021/07/24 07:38:34;;;;;;;10.25;5.90;;;19.90;72.10;;;;;;5075513;28;20178;-88
2021/07/24 07:41:00;;;;;;;7.47;5.10;;;20.00;71.80;;;;;;5075493;28;20658;-88
2021/07/24 07:43:25;;;;;;;8.10;4.68;;;20.10;72.10;;;;;;5057446;28;20207;-90
2021/07/24 07:45:51;;;;;;;9.55;4.70;;;20.20;71.10;;;;;;5057730;28;20639;-89
2021/07/24 07:48:16;;;;;;;8.10;4.97;;;20.30;69.90;;;;;;5075277;28;20202;-89
2021/07/24 07:50:43;;;;;;;10.10;4.93;;;20.30;69.60;;;;;;5075276;28;20179;-89
2021/07/24 07:53:09;;;;;;;10.43;5.50;;;20.40;69.20;;;;;;5075317;28;20195;-89
2021/07/24 07:55:36;;;;;;;8.90;4.57;;;20.40;69.80;;;;;;5057199;28;20206;-90
2021/07/24 07:58:10;;;;;;;7.68;3.90;;;20.50;68.00;;;;;;5057505;28;20614;-89
2021/07/24 08:00:35;;;;;;;8.07;4.10;;;20.60;68.70;;;;;;5057283;28;20162;-89
2021/07/24 08:03:01;;;;;;;8.90;4.72;;;20.50;68.80;;;;;;5075389;28;20164;-89
2021/07/24 08:05:27;;;;;;;10.50;4.68;;;20.60;69.10;;;;;;5057376;28;20183;-89
2021/07/24 08:07:53;;;;;;;11.60;4.72;;;20.60;70.00;;;;;;5057014;28;20202;-89
2021/07/24 08:10:21;;;;;;;9.07;4.85;;;20.60;68.30;;;;;;5057058;28;20171;-89
2021/07/24 08:12:48;;;;;;;10.32;4.20;;;20.70;69.70;;;;;;5074885;28;20171;-88
2021/07/24 08:15:14;;;;;;;5.15;3.40;;;20.80;67.20;;;;;;5056898;28;20195;-89
2021/07/24 08:17:40;;;;;;;9.52;4.40;;;20.80;64.40;;;;;;5074724;28;20194;-88
2021/07/24 08:20:08;;;;;;;8.15;4.40;;;20.90;65.20;;;;;;5056886;28;20171;-89
2021/07/24 08:22:34;;;;;;;6.82;3.85;;;20.80;65.40;;;;;;5056739;28;20179;-89
2021/07/24 08:24:59;;;;;;;7.97;3.88;;;20.90;66.80;;;;;;5074611;28;20174;-89
2021/07/24 08:27:25;;;;;;;10.80;4.25;;;21.00;66.30;;;;;;5074506;28;20211;-89
2021/07/24 08:29:55;;;;;;;8.38;4.25;;;21.10;66.50;;;;;;5074538;28;20258;-89
2021/07/24 08:32:21;;;;;;;10.65;4.25;;;21.10;66.50;;;;;;5056559;28;20175;-89
2021/07/24 08:34:56;;;;;;;7.82;4.22;;;21.10;66.40;;;;;;5074361;28;20296;-89
2021/07/24 08:37:22;;;;;;;6.53;3.67;;;21.30;65.50;;;;;;5074342;28;20191;-89
2021/07/24 08:39:48;;;;;;;8.35;4.97;;;21.30;65.90;;;;;;5056411;28;20175;-89
2021/07/24 08:42:41;;;;;;;6.72;3.90;;;21.50;66.00;;;;;;5056398;28;20221;-89
2021/07/24 08:45:09;;;;;;;9.40;4.15;;;21.70;66.00;;;;;;5073596;28;20255;-89
2021/07/24 08:47:35;;;;;;;8.40;4.07;;;21.70;65.10;;;;;;5056167;28;20195;-89
2021/07/24 08:50:02;;;;;;;9.38;4.95;;;21.80;65.10;;;;;;5074123;28;20258;-89
2021/07/24 08:52:29;;;;;;;8.52;4.50;;;21.90;66.70;;;;;;5056167;28;20546;-89
2021/07/24 08:54:55;;;;;;;11.77;4.85;;;21.90;64.70;;;;;;5073909;28;20199;-89
2021/07/24 08:57:26;;;;;;;9.05;4.35;;;21.80;65.60;;;;;;5056118;28;20544;-89
2021/07/24 08:59:54;;;;;;;10.95;4.93;;;21.90;63.80;;;;;;5056125;28;20163;-89
2021/07/24 09:02:29;;;;;;;9.68;4.65;;;21.90;65.40;;;;;;5056074;28;20643;-89
2021/07/24 09:04:57;;;;;;;11.57;5.25;;;22.20;64.10;;;;;;5056095;28;20179;-88
2021/07/24 09:07:28;;;;;;;11.77;4.90;;;22.20;63.80;;;;;;5055935;28;20199;-89
2021/07/24 09:09:59;;;;;;;10.05;4.55;;;22.30;65.10;;;;;;5055931;28;20179;-88
2021/07/24 09:12:26;;;;;;;8.20;4.47;;;22.20;63.70;;;;;;5056175;28;20289;-88
2021/07/24 09:14:51;;;;;;;8.23;4.70;;;22.30;61.50;;;;;;5073644;28;20332;-89
2021/07/24 09:17:20;;;;;;;8.25;4.70;;;22.30;62.90;;;;;;5056034;28;20229;-89
2021/07/24 09:19:46;;;;;;;8.38;4.35;;;22.50;62.50;;;;;;5073746;28;20172;-89
2021/07/24 09:22:31;;;;;;;7.38;5.13;;;22.50;64.00;;;;;;5073658;28;20163;-89
2021/07/24 09:25:10;;;;;;;8.85;4.88;;;22.80;62.90;;;;;;5055609;28;20186;-89
2021/07/24 09:27:44;;;;;;;9.88;4.80;;;22.90;61.70;;;;;;5055385;28;20225;-89
2021/07/24 09:30:28;;;;;;;12.98;4.57;;;22.90;61.10;;;;;;5073654;28;20159;-89
2021/07/24 09:33:06;;;;;;;14.57;5.05;;;22.90;61.90;;;;;;5055692;28;20175;-89
2021/07/24 09:35:40;;;;;;;8.75;5.18;;;22.90;60.00;;;;;;5055928;28;20198;-89
2021/07/24 09:38:10;;;;;;;8.40;4.32;;;23.00;60.60;;;;;;5055448;28;20672;-89
2021/07/24 09:40:37;;;;;;;7.55;4.03;;;23.20;58.00;;;;;;5055258;28;20175;-89
2021/07/24 09:43:21;;;;;;;5.53;3.85;;;23.30;58.40;;;;;;5055009;28;20175;-89
2021/07/24 09:45:47;;;;;;;6.88;3.78;;;23.50;59.00;;;;;;5055223;28;20170;-89
2021/07/24 09:48:15;;;;;;;11.05;4.55;;;23.40;58.10;;;;;;5055588;28;20235;-90
2021/07/24 09:50:47;;;;;;;6.55;3.65;;;23.50;59.30;;;;;;5055386;28;20183;-89
2021/07/24 09:53:12;;;;;;;11.50;5.22;;;23.30;59.20;;;;;;5055264;28;20172;-89
2021/07/24 09:55:46;;;;;;;10.90;4.32;;;23.30;59.70;;;;;;5055295;28;20209;-88
2021/07/24 09:58:19;;;;;;;7.28;5.00;;;23.40;58.60;;;;;;5061003;28;20194;-89
2021/07/24 10:00:46;;;;;;;8.32;4.38;;;23.60;57.90;;;;;;5061949;28;20349;-89
2021/07/24 10:03:11;;;;;;;8.15;5.32;;;23.70;60.30;;;;;;5061900;28;20175;-88
2021/07/24 10:05:41;;;;;;;11.63;4.72;;;23.80;58.90;;;;;;5062151;28;20545;-89
2021/07/24 10:08:12;;;;;;;5.75;4.00;;;23.80;58.70;;;;;;5062112;28;20195;-89
2021/07/24 10:10:40;;;;;;;9.15;4.35;;;24.00;58.40;;;;;;5080075;28;20592;-88
2021/07/24 10:13:13;;;;;;;11.75;4.45;;;24.00;58.30;;;;;;5061769;28;20241;-88
2021/07/24 10:15:41;;;;;;;7.93;4.88;;;23.50;57.60;;;;;;5061679;28;20705;-89
2021/07/24 10:18:09;;;;;;;7.45;4.60;;;23.60;59.40;;;;;;5061623;28;20736;-89
2021/07/24 10:20:44;;;;;;;8.13;4.90;;;24.00;59.10;;;;;;5061729;28;20202;-89
2021/07/24 10:23:11;;;;;;;7.45;4.82;;;24.30;58.50;;;;;;5079730;28;20163;-89
2021/07/24 10:25:47;;;;;;;9.63;4.40;;;24.50;57.60;;;;;;5061751;28;20558;-89
2021/07/24 10:28:19;;;;;;;7.68;4.57;;;24.60;56.30;;;;;;5061806;28;20614;-89
2021/07/24 10:30:45;;;;;;;6.18;4.60;;;24.40;56.20;;;;;;5061692;28;20300;-90
2021/07/24 10:33:12;;;;;;;7.70;4.60;;;24.40;55.80;;;;;;5061964;28;20178;-89
2021/07/24 10:35:38;;;;;;;9.55;4.63;;;24.40;57.30;;;;;;5061575;28;20195;-89
2021/07/24 10:38:28;;;;;;;8.27;4.13;;;24.70;57.40;;;;;;5079518;28;20686;-90
2021/07/24 10:40:53;;;;;;;7.03;4.40;;;24.90;56.80;;;;;;5061676;28;20311;-90
2021/07/24 10:44:00;;;;;;;8.20;4.18;;;25.10;56.00;;;;;;5061562;28;20201;-90
2021/07/24 10:46:57;;;;;;;6.13;4.28;;;25.10;54.60;;;;;;5079686;28;20194;-90
2021/07/24 10:49:32;;;;;;;9.55;4.78;;;24.80;54.80;;;;;;5063356;28;20248;-89
2021/07/24 10:51:58;;;;;;;7.32;4.60;;;24.80;55.10;;;;;;5080074;28;20162;-90
2021/07/24 10:54:25;;;;;;;8.20;4.60;;;24.90;55.90;;;;;;5079634;28;20234;-90
2021/07/24 10:56:52;;;;;;;4.63;3.80;;;25.00;54.90;;;;;;5061527;28;20223;-90
2021/07/24 10:59:24;;;;;;;8.77;4.07;;;25.00;55.50;;;;;;5079338;28;20250;-88
2021/07/24 11:01:57;;;;;;;5.70;3.58;;;25.20;53.30;;;;;;5079350;28;20166;-89
2021/07/24 11:04:35;;;;;;;6.10;4.40;;;25.40;52.10;;;;;;5061418;28;20201;-88
2021/07/24 11:07:16;;;;;;;7.13;3.88;;;25.40;51.50;;;;;;5061302;28;20195;-88
2021/07/24 11:09:44;;;;;;;9.55;3.95;;;25.30;52.80;;;;;;5075621;28;20194;-88
2021/07/24 11:12:14;;;;;;;6.35;4.03;;;25.30;54.40;;;;;;5075977;28;20252;-88
2021/07/24 11:14:42;;;;;;;7.55;3.65;;;25.60;51.30;;;;;;5058039;28;20238;-88
2021/07/24 11:17:08;;;;;;;6.50;3.72;;;25.60;51.90;;;;;;5076388;28;20267;-88
2021/07/24 11:19:39;;;;;;;6.65;4.22;;;25.60;51.00;;;;;;5075625;28;20191;-89
2021/07/24 11:22:21;;;;;;;7.60;4.72;;;25.60;51.50;;;;;;5057747;28;20176;-88
2021/07/24 11:24:50;;;;;;;4.60;3.78;;;25.60;52.40;;;;;;5057692;28;20164;-88
2021/07/24 11:27:30;;;;;;;7.50;3.53;;;25.70;50.80;;;;;;5057564;28;20219;-87
2021/07/24 11:30:07;;;;;;;12.32;4.45;;;25.40;52.00;;;;;;5075561;28;20238;-88
2021/07/24 11:32:43;;;;;;;8.02;3.75;;;25.40;51.60;;;;;;5075991;28;20198;-88
2021/07/24 11:35:13;;;;;;;11.50;4.47;;;25.30;51.60;;;;;;5057531;28;20234;-88
2021/07/24 11:37:51;;;;;;;5.05;3.47;;;25.30;51.70;;;;;;5057936;28;20196;-88
2021/07/24 11:40:31;;;;;;;5.82;3.55;;;25.20;52.70;;;;;;5075781;28;20526;-88
2021/07/24 11:43:08;;;;;;;5.15;4.10;;;25.40;50.60;;;;;;5075518;28;20160;-89
2021/07/24 11:45:41;;;;;;;9.48;4.30;;;25.50;49.20;;;;;;5075487;28;20213;-86
2021/07/24 11:48:06;;;;;;;5.03;3.63;;;25.70;51.20;;;;;;5075213;28;20191;-86
2021/07/24 11:50:32;;;;;;;9.82;3.90;;;25.60;49.40;;;;;;5057313;28;20221;-86
2021/07/24 11:52:58;;;;;;;6.20;4.38;;;25.60;50.90;;;;;;5057262;28;20186;-85
2021/07/24 11:55:35;;;;;;;8.60;4.15;;;25.70;50.30;;;;;;5075172;28;20209;-86
2021/07/24 11:58:13;;;;;;;10.70;4.45;;;25.80;51.30;;;;;;5057147;28;20194;-88
2021/07/24 12:00:40;;;;;;;6.20;3.63;;;26.00;49.70;;;;;;5075341;28;20163;-85
2021/07/24 12:03:20;;;;;;;4.85;3.80;;;26.20;49.70;;;;;;5057187;28;20301;-86
2021/07/24 12:06:02;;;;;;;5.53;3.85;;;26.40;48.10;;;;;;5074824;28;20553;-85
2021/07/24 12:08:29;;;;;;;5.30;3.72;;;26.20;49.90;;;;;;5057047;28;20636;-85
2021/07/24 12:10:56;;;;;;;5.82;3.70;;;26.30;50.10;;;;;;5056877;28;20657;-86
2021/07/24 12:13:27;;;;;;;9.32;4.38;;;26.50;49.10;;;;;;5056787;28;20175;-86
2021/07/24 12:15:52;;;;;;;6.65;3.67;;;26.70;49.90;;;;;;5074578;28;20215;-86
2021/07/24 12:18:18;;;;;;;6.68;3.55;;;26.60;46.60;;;;;;5056998;28;20214;-87
2021/07/24 12:20:44;;;;;;;6.03;3.60;;;26.50;46.70;;;;;;5055830;28;20183;-85
2021/07/24 12:23:24;;;;;;;5.25;3.92;;;26.50;47.60;;;;;;5056681;28;20175;-86
2021/07/24 12:26:09;;;;;;;5.65;4.15;;;26.60;48.20;;;;;;5056687;28;20167;-86
2021/07/24 12:28:35;;;;;;;13.90;4.47;;;26.70;47.90;;;;;;5057526;28;20185;-86
2021/07/24 12:31:22;;;;;;;7.60;4.10;;;26.70;47.00;;;;;;5074883;28;20203;-86
2021/07/24 12:33:50;;;;;;;7.07;3.30;;;26.70;45.40;;;;;;5056586;28;20258;-87
2021/07/24 12:36:17;;;;;;;8.38;3.65;;;26.80;48.80;;;;;;5056753;28;20265;-86
2021/07/24 12:38:43;;;;;;;5.65;3.90;;;26.80;47.40;;;;;;5056486;28;20576;-85
2021/07/24 12:41:08;;;;;;;4.95;3.58;;;26.60;46.20;;;;;;5074348;28;20167;-85
2021/07/24 12:43:39;;;;;;;6.07;3.75;;;26.60;46.70;;;;;;5074194;28;20646;-85